sensor_id;sensor_type;location;lat;lon;timestamp;P1;durP1;ratioP1;P2;durP2;ratioP2
39128;SDS011;24864;49.940;19.770;2023-04-02T00:01:17;52.58;;;31.50;;
39128;SDS011;24864;49.940;19.770;2023-04-02T00:04:03;52.38;;;32.17;;
39128;SDS011;24864;49.940;19.770;2023-04-02T00:06:52;56.25;;;32.70;;
39128;SDS011;24864;49.940;19.770;2023-04-02T00:09:27;58.58;;;33.00;;
39128;SDS011;24864;49.940;19.770;2023-04-02T00:12:00;52.25;;;32.63;;
39128;SDS011;24864;49.940;19.770;2023-04-02T00:14:44;58.85;;;34.78;;
39128;SDS011;24864;49.940;19.770;2023-04-02T00:17:14;61.13;;;35.40;;
39128;SDS011;24864;49.940;19.770;2023-04-02T00:19:44;66.50;;;35.15;;
39128;SDS011;24864;49.940;19.770;2023-04-02T00:22:17;56.08;;;34.60;;
39128;SDS011;24864;49.940;19.770;2023-04-02T00:24:47;61.67;;;36.47;;
39128;SDS011;24864;49.940;19.770;2023-04-02T00:27:19;64.32;;;35.00;;
39128;SDS011;24864;49.940;19.770;2023-04-02T00:29:47;67.63;;;38.60;;
39128;SDS011;24864;49.940;19.770;2023-04-02T00:32:19;67.00;;;38.42;;
39128;SDS011;24864;49.940;19.770;2023-04-02T00:34:49;69.00;;;37.58;;
39128;SDS011;24864;49.940;19.770;2023-04-02T00:37:18;69.10;;;37.03;;
39128;SDS011;24864;49.940;19.770;2023-04-02T00:39:54;67.70;;;37.38;;
39128;SDS011;24864;49.940;19.770;2023-04-02T00:42:27;68.97;;;38.22;;
39128;SDS011;24864;49.940;19.770;2023-04-02T00:44:56;76.55;;;39.75;;
39128;SDS011;24864;49.940;19.770;2023-04-02T00:47:26;75.60;;;42.38;;
39128;SDS011;24864;49.940;19.770;2023-04-02T00:49:58;73.82;;;39.38;;
39128;SDS011;24864;49.940;19.770;2023-04-02T00:52:31;78.47;;;41.08;;
39128;SDS011;24864;49.940;19.770;2023-04-02T00:55:02;71.30;;;40.55;;
39128;SDS011;24864;49.940;19.770;2023-04-02T00:57:35;72.20;;;40.92;;
39128;SDS011;24864;49.940;19.770;2023-04-02T01:00:12;77.60;;;42.47;;
39128;SDS011;24864;49.940;19.770;2023-04-02T01:05:42;80.53;;;43.22;;
39128;SDS011;24864;49.940;19.770;2023-04-02T01:08:14;85.60;;;43.97;;
39128;SDS011;24864;49.940;19.770;2023-04-02T01:10:50;89.90;;;43.05;;
39128;SDS011;24864;49.940;19.770;2023-04-02T01:13:28;78.82;;;44.17;;
39128;SDS011;24864;49.940;19.770;2023-04-02T01:16:00;90.25;;;45.92;;
39128;SDS011;24864;49.940;19.770;2023-04-02T01:18:34;80.70;;;43.63;;
39128;SDS011;24864;49.940;19.770;2023-04-02T01:21:14;90.32;;;46.28;;
39128;SDS011;24864;49.940;19.770;2023-04-02T01:23:53;90.25;;;49.60;;
39128;SDS011;24864;49.940;19.770;2023-04-02T01:26:41;94.38;;;51.20;;
39128;SDS011;24864;49.940;19.770;2023-04-02T01:29:15;88.78;;;48.03;;
39128;SDS011;24864;49.940;19.770;2023-04-02T01:31:47;91.55;;;49.30;;
39128;SDS011;24864;49.940;19.770;2023-04-02T01:34:18;90.60;;;48.75;;
39128;SDS011;24864;49.940;19.770;2023-04-02T01:36:53;89.00;;;49.05;;
39128;SDS011;24864;49.940;19.770;2023-04-02T01:39:34;92.82;;;51.75;;
39128;SDS011;24864;49.940;19.770;2023-04-02T01:42:11;93.05;;;50.30;;
39128;SDS011;24864;49.940;19.770;2023-04-02T01:44:45;96.82;;;49.88;;
39128;SDS011;24864;49.940;19.770;2023-04-02T01:47:16;89.20;;;49.67;;
39128;SDS011;24864;49.940;19.770;2023-04-02T01:49:46;95.53;;;51.38;;
39128;SDS011;24864;49.940;19.770;2023-04-02T01:52:15;100.45;;;51.28;;
39128;SDS011;24864;49.940;19.770;2023-04-02T01:54:45;92.22;;;50.10;;
39128;SDS011;24864;49.940;19.770;2023-04-02T01:57:13;98.70;;;50.35;;
39128;SDS011;24864;49.940;19.770;2023-04-02T01:59:44;106.15;;;52.05;;
39128;SDS011;24864;49.940;19.770;2023-04-02T02:02:13;96.45;;;51.90;;
39128;SDS011;24864;49.940;19.770;2023-04-02T02:04:41;91.10;;;49.58;;
39128;SDS011;24864;49.940;19.770;2023-04-02T02:07:12;89.28;;;50.25;;
39128;SDS011;24864;49.940;19.770;2023-04-02T02:09:42;96.40;;;49.85;;
39128;SDS011;24864;49.940;19.770;2023-04-02T02:12:11;97.50;;;51.45;;
39128;SDS011;24864;49.940;19.770;2023-04-02T02:14:45;101.45;;;52.08;;
39128;SDS011;24864;49.940;19.770;2023-04-02T02:17:15;108.00;;;52.38;;
39128;SDS011;24864;49.940;19.770;2023-04-02T02:19:45;122.05;;;52.83;;
39128;SDS011;24864;49.940;19.770;2023-04-02T02:22:16;118.07;;;55.25;;
39128;SDS011;24864;49.940;19.770;2023-04-02T02:24:48;114.75;;;56.30;;
39128;SDS011;24864;49.940;19.770;2023-04-02T02:27:30;138.38;;;60.85;;
39128;SDS011;24864;49.940;19.770;2023-04-02T02:30:13;135.25;;;62.67;;
39128;SDS011;24864;49.940;19.770;2023-04-02T02:32:46;118.78;;;63.00;;
39128;SDS011;24864;49.940;19.770;2023-04-02T02:35:19;101.90;;;53.00;;
39128;SDS011;24864;49.940;19.770;2023-04-02T02:37:52;111.18;;;55.50;;
39128;SDS011;24864;49.940;19.770;2023-04-02T02:40:25;106.03;;;54.67;;
39128;SDS011;24864;49.940;19.770;2023-04-02T02:42:56;112.65;;;56.40;;
39128;SDS011;24864;49.940;19.770;2023-04-02T02:47:59;104.25;;;52.83;;
39128;SDS011;24864;49.940;19.770;2023-04-02T02:50:30;106.05;;;52.67;;
39128;SDS011;24864;49.940;19.770;2023-04-02T02:52:59;101.95;;;52.65;;
39128;SDS011;24864;49.940;19.770;2023-04-02T02:55:32;97.57;;;52.08;;
39128;SDS011;24864;49.940;19.770;2023-04-02T02:58:03;93.65;;;50.45;;
39128;SDS011;24864;49.940;19.770;2023-04-02T03:00:36;93.43;;;48.72;;
39128;SDS011;24864;49.940;19.770;2023-04-02T03:03:06;88.15;;;49.67;;
39128;SDS011;24864;49.940;19.770;2023-04-02T03:05:36;92.57;;;50.00;;
39128;SDS011;24864;49.940;19.770;2023-04-02T03:08:08;95.22;;;51.55;;
39128;SDS011;24864;49.940;19.770;2023-04-02T03:10:41;95.90;;;50.30;;
39128;SDS011;24864;49.940;19.770;2023-04-02T03:13:14;95.75;;;49.80;;
39128;SDS011;24864;49.940;19.770;2023-04-02T03:15:50;89.28;;;47.90;;
39128;SDS011;24864;49.940;19.770;2023-04-02T03:18:25;95.97;;;48.45;;
39128;SDS011;24864;49.940;19.770;2023-04-02T03:21:01;90.50;;;46.78;;
39128;SDS011;24864;49.940;19.770;2023-04-02T03:23:37;79.57;;;43.20;;
39128;SDS011;24864;49.940;19.770;2023-04-02T03:26:09;75.28;;;40.97;;
39128;SDS011;24864;49.940;19.770;2023-04-02T03:31:12;69.32;;;40.65;;
39128;SDS011;24864;49.940;19.770;2023-04-02T03:33:43;77.35;;;42.30;;
39128;SDS011;24864;49.940;19.770;2023-04-02T03:36:15;76.82;;;42.30;;
39128;SDS011;24864;49.940;19.770;2023-04-02T03:38:48;76.88;;;41.05;;
39128;SDS011;24864;49.940;19.770;2023-04-02T03:41:19;63.10;;;36.00;;
39128;SDS011;24864;49.940;19.770;2023-04-02T03:43:50;56.33;;;34.50;;
39128;SDS011;24864;49.940;19.770;2023-04-02T03:46:24;58.05;;;34.10;;
39128;SDS011;24864;49.940;19.770;2023-04-02T03:48:53;56.97;;;33.13;;
39128;SDS011;24864;49.940;19.770;2023-04-02T03:51:24;55.80;;;31.13;;
39128;SDS011;24864;49.940;19.770;2023-04-02T03:53:54;50.45;;;30.50;;
39128;SDS011;24864;49.940;19.770;2023-04-02T03:56:25;49.33;;;31.45;;
39128;SDS011;24864;49.940;19.770;2023-04-02T03:59:01;50.47;;;29.77;;
39128;SDS011;24864;49.940;19.770;2023-04-02T04:01:34;55.65;;;31.83;;
39128;SDS011;24864;49.940;19.770;2023-04-02T04:04:04;44.05;;;26.50;;
39128;SDS011;24864;49.940;19.770;2023-04-02T04:06:34;38.03;;;25.90;;
39128;SDS011;24864;49.940;19.770;2023-04-02T04:09:06;46.85;;;26.38;;
39128;SDS011;24864;49.940;19.770;2023-04-02T04:11:37;41.35;;;24.85;;
39128;SDS011;24864;49.940;19.770;2023-04-02T04:14:12;47.42;;;28.67;;
39128;SDS011;24864;49.940;19.770;2023-04-02T04:16:47;47.10;;;26.85;;
39128;SDS011;24864;49.940;19.770;2023-04-02T04:19:20;54.30;;;28.55;;
39128;SDS011;24864;49.940;19.770;2023-04-02T04:22:06;43.83;;;26.73;;
39128;SDS011;24864;49.940;19.770;2023-04-02T04:24:36;45.45;;;27.92;;
39128;SDS011;24864;49.940;19.770;2023-04-02T04:27:05;45.17;;;28.70;;
39128;SDS011;24864;49.940;19.770;2023-04-02T04:29:39;38.88;;;26.75;;
39128;SDS011;24864;49.940;19.770;2023-04-02T04:32:20;35.03;;;23.90;;
39128;SDS011;24864;49.940;19.770;2023-04-02T04:34:53;36.15;;;22.92;;
39128;SDS011;24864;49.940;19.770;2023-04-02T04:37:27;36.83;;;22.58;;
39128;SDS011;24864;49.940;19.770;2023-04-02T04:40:02;33.83;;;22.75;;
39128;SDS011;24864;49.940;19.770;2023-04-02T04:42:37;37.83;;;23.63;;
39128;SDS011;24864;49.940;19.770;2023-04-02T04:45:10;43.83;;;26.35;;
39128;SDS011;24864;49.940;19.770;2023-04-02T04:47:47;45.30;;;26.55;;
39128;SDS011;24864;49.940;19.770;2023-04-02T04:50:18;43.67;;;25.48;;
39128;SDS011;24864;49.940;19.770;2023-04-02T04:52:52;41.13;;;24.92;;
39128;SDS011;24864;49.940;19.770;2023-04-02T04:55:25;45.08;;;26.02;;
39128;SDS011;24864;49.940;19.770;2023-04-02T04:57:58;48.20;;;29.77;;
39128;SDS011;24864;49.940;19.770;2023-04-02T05:00:32;43.80;;;29.30;;
39128;SDS011;24864;49.940;19.770;2023-04-02T05:03:12;36.97;;;23.83;;
39128;SDS011;24864;49.940;19.770;2023-04-02T05:05:46;39.13;;;23.92;;
39128;SDS011;24864;49.940;19.770;2023-04-02T05:08:15;32.28;;;22.05;;
39128;SDS011;24864;49.940;19.770;2023-04-02T05:10:47;33.10;;;21.67;;
39128;SDS011;24864;49.940;19.770;2023-04-02T05:13:19;36.55;;;24.13;;
39128;SDS011;24864;49.940;19.770;2023-04-02T05:15:51;35.88;;;23.83;;
39128;SDS011;24864;49.940;19.770;2023-04-02T05:18:29;40.88;;;24.92;;
39128;SDS011;24864;49.940;19.770;2023-04-02T05:21:02;43.13;;;25.85;;
39128;SDS011;24864;49.940;19.770;2023-04-02T05:23:34;34.97;;;23.95;;
39128;SDS011;24864;49.940;19.770;2023-04-02T05:26:04;35.28;;;23.13;;
39128;SDS011;24864;49.940;19.770;2023-04-02T05:28:36;32.40;;;23.38;;
39128;SDS011;24864;49.940;19.770;2023-04-02T05:31:07;38.33;;;23.95;;
39128;SDS011;24864;49.940;19.770;2023-04-02T05:33:41;39.78;;;24.85;;
39128;SDS011;24864;49.940;19.770;2023-04-02T05:36:17;45.55;;;27.65;;
39128;SDS011;24864;49.940;19.770;2023-04-02T05:38:47;47.35;;;26.65;;
39128;SDS011;24864;49.940;19.770;2023-04-02T05:41:19;48.22;;;30.25;;
39128;SDS011;24864;49.940;19.770;2023-04-02T05:43:57;42.45;;;27.33;;
39128;SDS011;24864;49.940;19.770;2023-04-02T05:46:31;43.22;;;27.23;;
39128;SDS011;24864;49.940;19.770;2023-04-02T05:49:03;40.90;;;25.15;;
39128;SDS011;24864;49.940;19.770;2023-04-02T05:51:37;43.47;;;26.90;;
39128;SDS011;24864;49.940;19.770;2023-04-02T05:54:13;40.33;;;24.83;;
39128;SDS011;24864;49.940;19.770;2023-04-02T05:56:45;40.70;;;24.50;;
39128;SDS011;24864;49.940;19.770;2023-04-02T05:59:15;41.55;;;25.52;;
39128;SDS011;24864;49.940;19.770;2023-04-02T06:01:46;38.78;;;24.27;;
39128;SDS011;24864;49.940;19.770;2023-04-02T06:04:19;44.85;;;24.27;;
39128;SDS011;24864;49.940;19.770;2023-04-02T06:06:56;42.85;;;24.67;;
39128;SDS011;24864;49.940;19.770;2023-04-02T06:09:36;34.75;;;24.00;;
39128;SDS011;24864;49.940;19.770;2023-04-02T06:12:11;40.85;;;25.52;;
39128;SDS011;24864;49.940;19.770;2023-04-02T06:14:43;42.97;;;24.27;;
39128;SDS011;24864;49.940;19.770;2023-04-02T06:17:13;43.08;;;25.52;;
39128;SDS011;24864;49.940;19.770;2023-04-02T06:19:43;34.60;;;23.33;;
39128;SDS011;24864;49.940;19.770;2023-04-02T06:22:18;36.93;;;25.37;;
39128;SDS011;24864;49.940;19.770;2023-04-02T06:24:52;43.45;;;26.40;;
39128;SDS011;24864;49.940;19.770;2023-04-02T06:27:24;57.53;;;31.40;;
39128;SDS011;24864;49.940;19.770;2023-04-02T06:29:54;52.72;;;29.08;;
39128;SDS011;24864;49.940;19.770;2023-04-02T06:32:25;49.58;;;27.90;;
39128;SDS011;24864;49.940;19.770;2023-04-02T06:34:55;38.38;;;25.33;;
39128;SDS011;24864;49.940;19.770;2023-04-02T06:37:25;37.60;;;23.60;;
39128;SDS011;24864;49.940;19.770;2023-04-02T06:39:56;40.47;;;23.58;;
39128;SDS011;24864;49.940;19.770;2023-04-02T06:42:26;37.50;;;24.55;;
39128;SDS011;24864;49.940;19.770;2023-04-02T06:44:56;43.67;;;25.40;;
39128;SDS011;24864;49.940;19.770;2023-04-02T06:47:27;37.15;;;22.63;;
39128;SDS011;24864;49.940;19.770;2023-04-02T06:50:02;37.53;;;24.35;;
39128;SDS011;24864;49.940;19.770;2023-04-02T06:52:33;40.22;;;24.92;;
39128;SDS011;24864;49.940;19.770;2023-04-02T06:55:04;31.15;;;20.63;;
39128;SDS011;24864;49.940;19.770;2023-04-02T06:57:44;31.63;;;21.20;;
39128;SDS011;24864;49.940;19.770;2023-04-02T07:00:14;31.35;;;21.88;;
39128;SDS011;24864;49.940;19.770;2023-04-02T07:02:52;30.48;;;19.42;;
39128;SDS011;24864;49.940;19.770;2023-04-02T07:05:23;26.20;;;18.23;;
39128;SDS011;24864;49.940;19.770;2023-04-02T07:07:52;26.25;;;18.05;;
39128;SDS011;24864;49.940;19.770;2023-04-02T07:10:20;18.55;;;15.07;;
39128;SDS011;24864;49.940;19.770;2023-04-02T07:12:49;23.30;;;15.63;;
39128;SDS011;24864;49.940;19.770;2023-04-02T07:15:17;18.85;;;14.90;;
39128;SDS011;24864;49.940;19.770;2023-04-02T07:17:46;22.58;;;16.83;;
39128;SDS011;24864;49.940;19.770;2023-04-02T07:20:21;21.08;;;15.68;;
39128;SDS011;24864;49.940;19.770;2023-04-02T07:22:54;22.70;;;17.35;;
39128;SDS011;24864;49.940;19.770;2023-04-02T07:25:23;26.95;;;16.30;;
39128;SDS011;24864;49.940;19.770;2023-04-02T07:27:53;22.95;;;16.45;;
39128;SDS011;24864;49.940;19.770;2023-04-02T07:30:21;23.35;;;16.60;;
39128;SDS011;24864;49.940;19.770;2023-04-02T07:32:50;20.92;;;16.45;;
39128;SDS011;24864;49.940;19.770;2023-04-02T07:35:18;17.60;;;15.23;;
39128;SDS011;24864;49.940;19.770;2023-04-02T07:37:48;23.58;;;17.95;;
39128;SDS011;24864;49.940;19.770;2023-04-02T07:40:19;21.50;;;16.42;;
39128;SDS011;24864;49.940;19.770;2023-04-02T07:42:49;16.95;;;13.77;;
39128;SDS011;24864;49.940;19.770;2023-04-02T07:45:18;17.98;;;13.88;;
39128;SDS011;24864;49.940;19.770;2023-04-02T07:47:46;18.88;;;13.75;;
39128;SDS011;24864;49.940;19.770;2023-04-02T07:50:15;19.30;;;13.73;;
39128;SDS011;24864;49.940;19.770;2023-04-02T07:52:43;17.77;;;13.65;;
39128;SDS011;24864;49.940;19.770;2023-04-02T07:55:13;15.95;;;13.07;;
39128;SDS011;24864;49.940;19.770;2023-04-02T07:57:46;15.88;;;13.73;;
39128;SDS011;24864;49.940;19.770;2023-04-02T08:00:16;33.30;;;21.17;;
39128;SDS011;24864;49.940;19.770;2023-04-02T08:02:46;21.90;;;16.67;;
39128;SDS011;24864;49.940;19.770;2023-04-02T08:05:15;19.35;;;15.70;;
39128;SDS011;24864;49.940;19.770;2023-04-02T08:07:44;19.05;;;13.07;;
39128;SDS011;24864;49.940;19.770;2023-04-02T08:10:20;17.25;;;13.27;;
39128;SDS011;24864;49.940;19.770;2023-04-02T08:12:49;17.55;;;11.50;;
39128;SDS011;24864;49.940;19.770;2023-04-02T08:15:18;16.38;;;12.95;;
39128;SDS011;24864;49.940;19.770;2023-04-02T08:17:46;14.30;;;12.25;;
39128;SDS011;24864;49.940;19.770;2023-04-02T08:20:15;22.30;;;15.20;;
39128;SDS011;24864;49.940;19.770;2023-04-02T08:22:45;32.10;;;18.05;;
39128;SDS011;24864;49.940;19.770;2023-04-02T08:25:14;28.15;;;16.90;;
39128;SDS011;24864;49.940;19.770;2023-04-02T08:27:46;22.83;;;16.38;;
39128;SDS011;24864;49.940;19.770;2023-04-02T08:30:16;27.67;;;18.20;;
39128;SDS011;24864;49.940;19.770;2023-04-02T08:32:46;30.58;;;19.45;;
39128;SDS011;24864;49.940;19.770;2023-04-02T08:35:15;28.80;;;18.60;;
39128;SDS011;24864;49.940;19.770;2023-04-02T08:37:43;39.38;;;22.42;;
39128;SDS011;24864;49.940;19.770;2023-04-02T08:40:21;39.60;;;22.63;;
39128;SDS011;24864;49.940;19.770;2023-04-02T08:43:03;41.47;;;23.98;;
39128;SDS011;24864;49.940;19.770;2023-04-02T08:45:53;7.53;;;4.85;;
39128;SDS011;24864;49.940;19.770;2023-04-02T08:48:27;2.22;;;1.73;;
39128;SDS011;24864;49.940;19.770;2023-04-02T08:50:58;3.33;;;1.73;;
39128;SDS011;24864;49.940;19.770;2023-04-02T08:53:27;4.72;;;1.90;;
39128;SDS011;24864;49.940;19.770;2023-04-02T08:55:59;1.83;;;1.10;;
39128;SDS011;24864;49.940;19.770;2023-04-02T08:58:36;2.15;;;1.23;;
39128;SDS011;24864;49.940;19.770;2023-04-02T09:01:10;4.40;;;1.10;;
39128;SDS011;24864;49.940;19.770;2023-04-02T09:03:46;2.22;;;1.50;;
39128;SDS011;24864;49.940;19.770;2023-04-02T09:06:18;2.72;;;1.65;;
39128;SDS011;24864;49.940;19.770;2023-04-02T09:08:47;6.15;;;1.98;;
39128;SDS011;24864;49.940;19.770;2023-04-02T09:11:18;2.95;;;1.88;;
39128;SDS011;24864;49.940;19.770;2023-04-02T09:13:54;3.65;;;1.83;;
39128;SDS011;24864;49.940;19.770;2023-04-02T09:16:29;2.47;;;1.40;;
39128;SDS011;24864;49.940;19.770;2023-04-02T09:19:09;2.72;;;1.60;;
39128;SDS011;24864;49.940;19.770;2023-04-02T09:21:45;1.92;;;1.35;;
39128;SDS011;24864;49.940;19.770;2023-04-02T09:24:19;2.88;;;1.23;;
39128;SDS011;24864;49.940;19.770;2023-04-02T09:26:48;2.40;;;1.23;;
39128;SDS011;24864;49.940;19.770;2023-04-02T09:29:27;1.35;;;1.13;;
39128;SDS011;24864;49.940;19.770;2023-04-02T09:32:06;2.70;;;2.00;;
39128;SDS011;24864;49.940;19.770;2023-04-02T09:34:39;2.42;;;1.83;;
39128;SDS011;24864;49.940;19.770;2023-04-02T09:37:13;1.50;;;1.00;;
39128;SDS011;24864;49.940;19.770;2023-04-02T09:39:43;2.35;;;1.10;;
39128;SDS011;24864;49.940;19.770;2023-04-02T09:42:27;2.13;;;1.25;;
39128;SDS011;24864;49.940;19.770;2023-04-02T09:45:12;4.97;;;1.30;;
39128;SDS011;24864;49.940;19.770;2023-04-02T09:47:42;2.20;;;1.23;;
39128;SDS011;24864;49.940;19.770;2023-04-02T09:50:21;3.78;;;1.48;;
39128;SDS011;24864;49.940;19.770;2023-04-02T09:52:51;4.40;;;1.02;;
39128;SDS011;24864;49.940;19.770;2023-04-02T09:55:21;6.50;;;2.05;;
39128;SDS011;24864;49.940;19.770;2023-04-02T09:58:07;6.00;;;3.70;;
39128;SDS011;24864;49.940;19.770;2023-04-02T10:00:40;3.92;;;1.75;;
39128;SDS011;24864;49.940;19.770;2023-04-02T10:03:18;3.67;;;2.50;;
39128;SDS011;24864;49.940;19.770;2023-04-02T10:06:02;5.78;;;3.95;;
39128;SDS011;24864;49.940;19.770;2023-04-02T10:08:32;4.32;;;2.70;;
39128;SDS011;24864;49.940;19.770;2023-04-02T10:11:01;5.57;;;3.38;;
39128;SDS011;24864;49.940;19.770;2023-04-02T10:13:32;7.78;;;4.53;;
39128;SDS011;24864;49.940;19.770;2023-04-02T10:16:08;5.53;;;3.53;;
39128;SDS011;24864;49.940;19.770;2023-04-02T10:18:40;4.97;;;3.63;;
39128;SDS011;24864;49.940;19.770;2023-04-02T10:21:13;8.02;;;4.35;;
39128;SDS011;24864;49.940;19.770;2023-04-02T10:23:44;6.72;;;3.53;;
39128;SDS011;24864;49.940;19.770;2023-04-02T10:26:24;6.70;;;4.13;;
39128;SDS011;24864;49.940;19.770;2023-04-02T10:29:14;7.07;;;3.63;;
39128;SDS011;24864;49.940;19.770;2023-04-02T10:31:52;6.78;;;4.10;;
39128;SDS011;24864;49.940;19.770;2023-04-02T10:34:29;6.13;;;3.97;;
39128;SDS011;24864;49.940;19.770;2023-04-02T10:37:06;6.03;;;3.67;;
39128;SDS011;24864;49.940;19.770;2023-04-02T10:39:52;5.85;;;4.00;;
39128;SDS011;24864;49.940;19.770;2023-04-02T10:42:27;5.43;;;3.90;;
39128;SDS011;24864;49.940;19.770;2023-04-02T10:45:00;6.43;;;3.67;;
39128;SDS011;24864;49.940;19.770;2023-04-02T10:47:34;5.35;;;2.88;;
39128;SDS011;24864;49.940;19.770;2023-04-02T10:50:11;4.80;;;2.25;;
39128;SDS011;24864;49.940;19.770;2023-04-02T10:52:51;5.65;;;4.00;;
39128;SDS011;24864;49.940;19.770;2023-04-02T10:55:24;6.22;;;3.38;;
39128;SDS011;24864;49.940;19.770;2023-04-02T10:57:56;2.83;;;1.63;;
39128;SDS011;24864;49.940;19.770;2023-04-02T11:00:27;3.65;;;2.42;;
39128;SDS011;24864;49.940;19.770;2023-04-02T11:03:02;7.63;;;4.40;;
39128;SDS011;24864;49.940;19.770;2023-04-02T11:05:33;5.30;;;3.53;;
39128;SDS011;24864;49.940;19.770;2023-04-02T11:08:10;6.15;;;3.70;;
39128;SDS011;24864;49.940;19.770;2023-04-02T11:10:45;7.30;;;4.28;;
39128;SDS011;24864;49.940;19.770;2023-04-02T11:13:17;3.78;;;2.28;;
39128;SDS011;24864;49.940;19.770;2023-04-02T11:15:49;10.43;;;6.75;;
39128;SDS011;24864;49.940;19.770;2023-04-02T11:18:22;9.48;;;7.05;;
39128;SDS011;24864;49.940;19.770;2023-04-02T11:23:32;6.57;;;4.82;;
39128;SDS011;24864;49.940;19.770;2023-04-02T11:29:05;6.60;;;4.35;;
39128;SDS011;24864;49.940;19.770;2023-04-02T11:31:38;7.35;;;4.15;;
39128;SDS011;24864;49.940;19.770;2023-04-02T11:34:12;6.38;;;4.05;;
39128;SDS011;24864;49.940;19.770;2023-04-02T11:36:57;10.20;;;6.57;;
39128;SDS011;24864;49.940;19.770;2023-04-02T11:39:46;7.55;;;4.72;;
39128;SDS011;24864;49.940;19.770;2023-04-02T11:48:27;3.88;;;2.30;;
39128;SDS011;24864;49.940;19.770;2023-04-02T11:50:58;4.57;;;2.65;;
39128;SDS011;24864;49.940;19.770;2023-04-02T11:53:31;4.10;;;2.58;;
39128;SDS011;24864;49.940;19.770;2023-04-02T11:56:04;3.83;;;2.45;;
39128;SDS011;24864;49.940;19.770;2023-04-02T11:58:47;3.95;;;2.75;;
39128;SDS011;24864;49.940;19.770;2023-04-02T12:01:25;5.80;;;3.58;;
39128;SDS011;24864;49.940;19.770;2023-04-02T12:07:03;5.43;;;4.63;;
39128;SDS011;24864;49.940;19.770;2023-04-02T12:09:45;5.03;;;4.07;;
39128;SDS011;24864;49.940;19.770;2023-04-02T12:12:16;5.65;;;4.05;;
39128;SDS011;24864;49.940;19.770;2023-04-02T12:14:50;5.93;;;4.25;;
39128;SDS011;24864;49.940;19.770;2023-04-02T12:17:23;7.53;;;5.63;;
39128;SDS011;24864;49.940;19.770;2023-04-02T12:19:53;9.48;;;7.43;;
39128;SDS011;24864;49.940;19.770;2023-04-02T12:22:25;12.10;;;8.00;;
39128;SDS011;24864;49.940;19.770;2023-04-02T12:27:26;8.13;;;5.93;;
39128;SDS011;24864;49.940;19.770;2023-04-02T12:30:09;8.57;;;6.13;;
39128;SDS011;24864;49.940;19.770;2023-04-02T12:32:39;12.52;;;8.65;;
39128;SDS011;24864;49.940;19.770;2023-04-02T12:35:18;10.73;;;8.82;;
39128;SDS011;24864;49.940;19.770;2023-04-02T12:37:55;10.43;;;9.10;;
39128;SDS011;24864;49.940;19.770;2023-04-02T12:40:25;16.48;;;10.98;;
39128;SDS011;24864;49.940;19.770;2023-04-02T12:42:53;17.88;;;11.98;;
39128;SDS011;24864;49.940;19.770;2023-04-02T12:45:22;14.57;;;11.48;;
39128;SDS011;24864;49.940;19.770;2023-04-02T12:47:55;30.30;;;18.15;;
39128;SDS011;24864;49.940;19.770;2023-04-02T12:50:24;16.23;;;11.90;;
39128;SDS011;24864;49.940;19.770;2023-04-02T12:52:52;23.13;;;16.77;;
39128;SDS011;24864;49.940;19.770;2023-04-02T12:55:25;19.10;;;14.25;;
39128;SDS011;24864;49.940;19.770;2023-04-02T12:57:54;25.85;;;17.67;;
39128;SDS011;24864;49.940;19.770;2023-04-02T13:00:30;18.67;;;15.13;;
39128;SDS011;24864;49.940;19.770;2023-04-02T13:05:47;24.70;;;18.42;;
39128;SDS011;24864;49.940;19.770;2023-04-02T13:08:18;26.38;;;19.38;;
39128;SDS011;24864;49.940;19.770;2023-04-02T13:10:54;28.75;;;20.85;;
39128;SDS011;24864;49.940;19.770;2023-04-02T13:13:24;23.17;;;17.17;;
39128;SDS011;24864;49.940;19.770;2023-04-02T13:18:32;25.67;;;18.45;;
39128;SDS011;24864;49.940;19.770;2023-04-02T13:21:03;32.67;;;19.40;;
39128;SDS011;24864;49.940;19.770;2023-04-02T13:23:33;26.13;;;18.42;;
39128;SDS011;24864;49.940;19.770;2023-04-02T13:26:16;28.13;;;19.80;;
39128;SDS011;24864;49.940;19.770;2023-04-02T13:28:54;23.58;;;17.35;;
39128;SDS011;24864;49.940;19.770;2023-04-02T13:31:23;16.60;;;13.23;;
39128;SDS011;24864;49.940;19.770;2023-04-02T13:33:51;15.98;;;12.70;;
39128;SDS011;24864;49.940;19.770;2023-04-02T13:36:20;18.08;;;13.60;;
39128;SDS011;24864;49.940;19.770;2023-04-02T13:38:48;22.95;;;14.05;;
39128;SDS011;24864;49.940;19.770;2023-04-02T13:41:22;22.48;;;16.10;;
39128;SDS011;24864;49.940;19.770;2023-04-02T13:43:52;29.00;;;18.60;;
39128;SDS011;24864;49.940;19.770;2023-04-02T13:46:23;30.95;;;20.00;;
39128;SDS011;24864;49.940;19.770;2023-04-02T13:48:52;30.13;;;18.60;;
39128;SDS011;24864;49.940;19.770;2023-04-02T13:51:22;24.33;;;17.02;;
39128;SDS011;24864;49.940;19.770;2023-04-02T13:53:52;33.13;;;21.98;;
39128;SDS011;24864;49.940;19.770;2023-04-02T13:56:23;35.58;;;23.58;;
39128;SDS011;24864;49.940;19.770;2023-04-02T13:58:52;39.05;;;23.35;;
39128;SDS011;24864;49.940;19.770;2023-04-02T14:01:20;23.77;;;17.90;;
39128;SDS011;24864;49.940;19.770;2023-04-02T14:03:50;29.20;;;20.88;;
39128;SDS011;24864;49.940;19.770;2023-04-02T14:06:21;29.60;;;19.02;;
39128;SDS011;24864;49.940;19.770;2023-04-02T14:08:56;30.02;;;20.10;;
39128;SDS011;24864;49.940;19.770;2023-04-02T14:11:37;30.95;;;19.17;;
39128;SDS011;24864;49.940;19.770;2023-04-02T14:17:07;32.45;;;20.95;;
39128;SDS011;24864;49.940;19.770;2023-04-02T14:19:45;35.22;;;23.98;;
39128;SDS011;24864;49.940;19.770;2023-04-02T14:22:25;36.67;;;24.60;;
39128;SDS011;24864;49.940;19.770;2023-04-02T14:25:02;44.17;;;27.73;;
39128;SDS011;24864;49.940;19.770;2023-04-02T14:27:38;34.70;;;23.15;;
39128;SDS011;24864;49.940;19.770;2023-04-02T14:30:11;36.35;;;23.17;;
39128;SDS011;24864;49.940;19.770;2023-04-02T14:32:44;39.97;;;25.33;;
39128;SDS011;24864;49.940;19.770;2023-04-02T14:35:19;31.63;;;21.17;;
39128;SDS011;24864;49.940;19.770;2023-04-02T14:37:51;25.50;;;17.73;;
39128;SDS011;24864;49.940;19.770;2023-04-02T14:40:28;27.63;;;19.08;;
39128;SDS011;24864;49.940;19.770;2023-04-02T14:43:03;27.85;;;18.08;;
39128;SDS011;24864;49.940;19.770;2023-04-02T14:45:39;27.55;;;19.73;;
39128;SDS011;24864;49.940;19.770;2023-04-02T14:48:16;26.40;;;18.67;;
39128;SDS011;24864;49.940;19.770;2023-04-02T14:50:52;15.57;;;12.10;;
39128;SDS011;24864;49.940;19.770;2023-04-02T14:53:25;14.40;;;12.88;;
39128;SDS011;24864;49.940;19.770;2023-04-02T14:55:56;13.82;;;11.85;;
39128;SDS011;24864;49.940;19.770;2023-04-02T14:58:29;14.70;;;13.07;;
39128;SDS011;24864;49.940;19.770;2023-04-02T15:01:02;17.75;;;14.27;;
39128;SDS011;24864;49.940;19.770;2023-04-02T15:03:34;20.05;;;15.45;;
39128;SDS011;24864;49.940;19.770;2023-04-02T15:06:08;16.05;;;13.57;;
39128;SDS011;24864;49.940;19.770;2023-04-02T15:08:38;18.05;;;15.48;;
39128;SDS011;24864;49.940;19.770;2023-04-02T15:11:10;20.70;;;15.45;;
39128;SDS011;24864;49.940;19.770;2023-04-02T15:13:43;16.33;;;13.80;;
39128;SDS011;24864;49.940;19.770;2023-04-02T15:16:13;15.07;;;13.48;;
39128;SDS011;24864;49.940;19.770;2023-04-02T15:18:46;16.60;;;12.70;;
39128;SDS011;24864;49.940;19.770;2023-04-02T15:21:26;12.15;;;10.07;;